createdAt,value
2018-04-11T00:00:02.996Z,94.70
2018-04-11T00:02:30.513Z,95.10
2018-04-11T00:04:58.056Z,95.00
2018-04-11T00:07:25.590Z,95.40
2018-04-11T00:09:53.141Z,95.30
2018-04-11T00:12:20.655Z,95.10
2018-04-11T00:14:48.192Z,95.10
2018-04-11T00:17:15.724Z,95.60
2018-04-11T00:19:43.249Z,95.60
2018-04-11T00:22:11.566Z,95.40
2018-04-11T00:24:39.087Z,95.40
2018-04-11T00:27:06.633Z,95.20
2018-04-11T00:29:34.166Z,95.40
2018-04-11T00:32:01.727Z,95.30
2018-04-11T00:34:30.012Z,95.50
2018-04-11T00:36:57.532Z,95.50
2018-04-11T00:39:25.076Z,95.60
2018-04-11T00:41:53.557Z,96.10
2018-04-11T00:44:21.101Z,95.80
2018-04-11T00:46:48.624Z,95.60
2018-04-11T00:49:16.174Z,95.70
2018-04-11T00:51:43.693Z,95.70
2018-04-11T00:54:11.206Z,95.70
2018-04-11T00:56:39.518Z,95.60
2018-04-11T00:59:07.037Z,95.60
2018-04-11T01:01:35.560Z,95.30
2018-04-11T01:04:03.082Z,96.00
2018-04-11T01:06:33.312Z,95.90
2018-04-11T01:09:00.820Z,95.90
2018-04-11T01:11:28.350Z,96.00
2018-04-11T01:13:55.890Z,96.20
2018-04-11T01:16:23.408Z,95.90
2018-04-11T01:18:51.724Z,96.10
2018-04-11T01:21:19.232Z,96.10
2018-04-11T01:23:46.781Z,95.90
2018-04-11T01:26:14.300Z,95.80
2018-04-11T01:28:43.844Z,96.20
2018-04-11T01:31:11.370Z,96.50
2018-04-11T01:33:38.888Z,96.20
2018-04-11T01:36:06.432Z,96.30
2018-04-11T01:38:33.957Z,96.30
2018-04-11T01:41:01.505Z,96.50
2018-04-11T01:43:29.028Z,96.70
2018-04-11T01:45:56.564Z,96.70
2018-04-11T01:48:24.091Z,96.60
2018-04-11T01:50:51.608Z,96.60
2018-04-11T01:53:19.153Z,96.60
2018-04-11T01:55:47.434Z,95.90
2018-04-11T01:58:14.977Z,95.90
2018-04-11T02:00:42.504Z,95.90
2018-04-11T02:03:10.049Z,95.80
2018-04-11T02:05:37.581Z,96.30
2018-04-11T02:08:05.102Z,96.30
2018-04-11T02:10:32.660Z,96.20
2018-04-11T02:13:00.169Z,96.20
2018-04-11T02:15:27.722Z,95.90
2018-04-11T02:17:56.011Z,96.20
2018-04-11T02:20:23.560Z,96.20
2018-04-11T02:22:51.836Z,96.10
2018-04-11T02:25:20.124Z,96.00
2018-04-11T02:27:47.671Z,96.00
2018-04-11T02:30:15.200Z,96.10
2018-04-11T02:32:44.493Z,96.20
2018-04-11T02:35:12.023Z,96.20
2018-04-11T02:37:39.572Z,96.20
2018-04-11T02:40:08.069Z,96.20
2018-04-11T02:42:35.584Z,96.50
2018-04-11T02:45:05.845Z,96.50
2018-04-11T02:47:33.368Z,96.50
2018-04-11T02:50:00.905Z,96.20
2018-04-11T02:52:29.231Z,96.30
2018-04-11T02:54:56.757Z,96.30
2018-04-11T02:57:24.299Z,96.60
2018-04-11T02:59:51.847Z,96.50
2018-04-11T03:02:19.389Z,96.30
2018-04-11T03:04:46.933Z,96.20
2018-04-11T03:07:14.467Z,96.30
2018-04-11T03:09:41.988Z,96.20
2018-04-11T03:12:10.466Z,96.30
2018-04-11T03:14:38.037Z,96.30
2018-04-11T03:17:05.564Z,96.10
2018-04-11T03:19:33.077Z,96.50
2018-04-11T03:22:00.587Z,96.40
2018-04-11T03:24:28.128Z,96.20
2018-04-11T03:27:03.233Z,96.20
2018-04-11T03:29:31.619Z,96.30
2018-04-11T03:31:59.151Z,96.30
2018-04-11T03:34:27.665Z,96.40
2018-04-11T03:36:55.209Z,96.30
2018-04-11T03:39:22.728Z,96.20
2018-04-11T03:41:50.244Z,96.30
2018-04-11T03:44:18.768Z,96.40
2018-04-11T03:46:47.254Z,96.40
2018-04-11T03:49:15.552Z,96.40
2018-04-11T03:51:43.842Z,96.90
2018-04-11T03:54:11.364Z,96.90
2018-04-11T03:56:38.900Z,96.50
2018-04-11T03:59:06.415Z,96.40
2018-04-11T04:01:33.980Z,96.50
2018-04-11T04:04:01.497Z,96.30
2018-04-11T04:06:29.009Z,95.80
2018-04-11T04:08:56.555Z,96.60
2018-04-11T04:11:24.068Z,96.70
2018-04-11T04:14:03.476Z,96.70
2018-04-11T04:16:42.840Z,96.70
2018-04-11T04:19:22.280Z,96.70
2018-04-11T04:21:49.804Z,96.60
2018-04-11T04:24:17.320Z,97.30
2018-04-11T04:26:45.664Z,97.30
2018-04-11T04:29:13.178Z,97.30
2018-04-11T04:31:41.690Z,97.50
2018-04-11T04:34:09.208Z,97.30
2018-04-11T04:36:36.729Z,97.30
2018-04-11T04:39:04.273Z,97.30
2018-04-11T04:41:31.801Z,97.20
2018-04-11T04:43:59.342Z,97.20
2018-04-11T04:46:26.864Z,97.10
2018-04-11T04:48:54.373Z,96.70
2018-04-11T04:51:21.916Z,96.30
2018-04-11T04:53:49.441Z,96.50
2018-04-11T04:56:17.004Z,96.50
2018-04-11T04:58:44.525Z,96.10
2018-04-11T05:01:12.036Z,96.40
2018-04-11T05:03:39.572Z,96.40
2018-04-11T05:06:07.093Z,96.50
2018-04-11T05:08:34.649Z,97.00
2018-04-11T05:11:02.170Z,96.80
2018-04-11T05:13:30.453Z,97.00
2018-04-11T05:15:58.003Z,97.00
2018-04-11T05:18:25.516Z,97.00
2018-04-11T05:20:53.065Z,97.10
2018-04-11T05:23:20.591Z,97.10
2018-04-11T05:25:48.109Z,97.30
2018-04-11T05:28:15.654Z,97.00
2018-04-11T05:30:43.177Z,97.30
2018-04-11T05:33:10.723Z,97.60
2018-04-11T05:35:38.236Z,97.50
2018-04-11T05:38:05.757Z,97.20
2018-04-11T05:40:33.669Z,97.20
2018-04-11T05:43:01.952Z,96.90
2018-04-11T05:45:29.936Z,96.90
2018-04-11T05:47:58.341Z,96.90
2018-04-11T05:50:26.100Z,96.70
2018-04-11T05:52:53.693Z,96.60
2018-04-11T05:55:21.218Z,96.50
2018-04-11T05:57:48.774Z,96.20
2018-04-11T06:00:16.298Z,95.50
2018-04-11T06:02:44.801Z,94.90
2018-04-11T06:05:13.117Z,93.90
2018-04-11T06:07:40.632Z,93.90
2018-04-11T06:10:09.162Z,94.00
2018-04-11T06:12:36.690Z,94.20
2018-04-11T06:15:04.243Z,94.30
2018-04-11T06:17:32.543Z,93.90
2018-04-11T06:20:00.064Z,93.90
2018-04-11T06:22:27.613Z,93.70
2018-04-11T06:24:55.133Z,93.70
2018-04-11T06:27:22.693Z,93.70
2018-04-11T06:29:50.217Z,93.40
2018-04-11T06:32:17.766Z,93.10
2018-04-11T06:34:45.297Z,92.40
2018-04-11T06:37:13.578Z,92.60
2018-04-11T06:39:41.128Z,92.60
2018-04-11T06:42:08.691Z,92.20
2018-04-11T06:44:36.232Z,92.10
2018-04-11T06:47:03.759Z,92.00
2018-04-11T06:49:31.311Z,91.30
2018-04-11T06:51:58.878Z,91.40
2018-04-11T06:54:26.426Z,91.20
2018-04-11T06:56:53.978Z,91.00
2018-04-11T06:59:21.496Z,90.90
2018-04-11T07:01:49.054Z,90.60
2018-04-11T07:04:17.540Z,90.90
2018-04-11T07:06:45.068Z,91.00
2018-04-11T07:09:12.611Z,90.40
2018-04-11T07:11:40.138Z,90.40
2018-04-11T07:14:08.468Z,90.20
2018-04-11T07:16:35.994Z,90.10
2018-04-11T07:19:03.544Z,89.30
2018-04-11T07:21:31.077Z,87.70
2018-04-11T07:23:59.552Z,86.40
2018-04-11T07:26:28.096Z,87.80
2018-04-11T07:28:55.645Z,84.80
2018-04-11T07:31:23.213Z,84.90
2018-04-11T07:33:51.746Z,85.70
2018-04-11T07:36:19.269Z,88.40
2018-04-11T07:38:47.764Z,88.10
2018-04-11T07:41:15.441Z,86.60
2018-04-11T07:43:43.760Z,85.70
2018-04-11T07:46:11.380Z,85.70
2018-04-11T07:48:38.886Z,85.10
2018-04-11T07:51:07.359Z,83.50
2018-04-11T07:53:34.898Z,82.70
2018-04-11T07:56:03.353Z,81.60
2018-04-11T07:58:30.881Z,81.60
2018-04-11T08:00:59.440Z,80.60
2018-04-11T08:03:26.983Z,83.00
2018-04-11T08:05:54.601Z,83.00
2018-04-11T08:08:22.134Z,81.90
2018-04-11T08:10:49.684Z,84.80
2018-04-11T08:13:17.232Z,87.20
2018-04-11T08:15:44.760Z,85.60
2018-04-11T08:18:12.305Z,83.70
2018-04-11T08:20:39.836Z,83.20
2018-04-11T08:23:07.391Z,81.50
2018-04-11T08:25:34.913Z,82.50
2018-04-11T08:28:03.424Z,80.20
2018-04-11T08:30:30.949Z,78.10
2018-04-11T08:32:58.477Z,78.20
2018-04-11T08:35:26.791Z,78.50
2018-04-11T08:37:54.317Z,78.50
2018-04-11T08:40:21.868Z,76.60
2018-04-11T08:42:49.388Z,75.10
2018-04-11T08:45:17.037Z,74.40
2018-04-11T08:47:44.560Z,72.20
2018-04-11T08:50:12.855Z,71.50
2018-04-11T08:52:40.415Z,71.50
2018-04-11T08:55:07.939Z,69.10
2018-04-11T08:57:35.498Z,67.30
2018-04-11T09:00:03.031Z,64.30
2018-04-11T09:02:32.520Z,64.70
2018-04-11T09:05:00.044Z,60.60
2018-04-11T09:07:28.335Z,59.60
2018-04-11T09:09:55.881Z,59.70
2018-04-11T09:12:24.169Z,62.70
2018-04-11T09:14:51.712Z,62.60
2018-04-11T09:17:20.007Z,61.80
2018-04-11T09:19:49.510Z,61.80
2018-04-11T09:22:17.030Z,60.60
2018-04-11T09:24:44.553Z,60.20
2018-04-11T09:27:12.113Z,61.70
2018-04-11T09:29:39.644Z,62.30
2018-04-11T09:32:07.189Z,62.80
2018-04-11T09:34:34.712Z,63.60
2018-04-11T09:37:02.242Z,62.90
2018-04-11T09:39:29.788Z,62.70
2018-04-11T09:41:57.324Z,62.20
2018-04-11T09:44:24.885Z,63.30
2018-04-11T09:46:53.173Z,61.90
2018-04-11T09:49:20.754Z,61.90
2018-04-11T09:51:48.312Z,62.30
2018-04-11T09:54:15.836Z,62.70
2018-04-11T09:56:44.164Z,61.50
2018-04-11T09:59:11.678Z,61.40
2018-04-11T10:01:44.920Z,61.50
2018-04-11T10:04:12.993Z,62.70
2018-04-11T10:06:41.489Z,61.60
2018-04-11T10:09:09.038Z,61.00
2018-04-11T10:11:36.561Z,60.10
2018-04-11T10:14:04.112Z,60.70
2018-04-11T10:16:31.634Z,60.70
2018-04-11T10:18:59.172Z,59.60
2018-04-11T10:21:26.726Z,58.60
2018-04-11T10:23:54.246Z,58.90
2018-04-11T10:26:21.813Z,59.30
2018-04-11T10:28:49.330Z,59.40
2018-04-11T10:31:17.826Z,58.40
2018-04-11T10:33:48.140Z,59.00
2018-04-11T10:36:16.424Z,57.30
2018-04-11T10:38:43.973Z,57.30
2018-04-11T10:41:12.267Z,56.80
2018-04-11T10:43:39.822Z,56.80
2018-04-11T10:46:07.373Z,56.00
2018-04-11T10:48:35.677Z,45.00
2018-04-11T10:51:04.182Z,45.20
2018-04-11T10:53:31.717Z,51.90
2018-04-11T10:55:59.269Z,54.90
2018-04-11T10:58:26.790Z,56.70
2018-04-11T11:00:54.321Z,51.50
2018-04-11T11:03:21.874Z,52.40
2018-04-11T11:05:49.400Z,42.60
2018-04-11T11:08:16.949Z,42.00
2018-04-11T11:10:44.477Z,45.00
2018-04-11T11:13:11.998Z,48.10
2018-04-11T11:15:39.557Z,48.20
2018-04-11T11:18:07.078Z,50.20
2018-04-11T11:20:36.552Z,48.00
2018-04-11T11:23:04.073Z,48.70
2018-04-11T11:25:31.604Z,48.00
2018-04-11T11:27:59.152Z,46.90
2018-04-11T11:30:28.390Z,46.90
2018-04-11T11:32:57.896Z,46.90
2018-04-11T11:35:25.426Z,47.60
2018-04-11T11:37:52.987Z,44.40
2018-04-11T11:40:20.510Z,36.90
2018-04-11T11:42:48.045Z,37.20
2018-04-11T11:45:15.593Z,35.90
2018-04-11T11:47:43.115Z,35.20
2018-04-11T11:50:11.663Z,33.80
2018-04-11T11:52:39.952Z,33.70
2018-04-11T11:55:07.505Z,33.70
2018-04-11T11:57:35.025Z,34.00
2018-04-11T12:00:02.554Z,34.50
2018-04-11T12:02:30.225Z,33.40
2018-04-11T12:04:57.803Z,33.30
2018-04-11T12:07:25.332Z,33.10
2018-04-11T12:09:53.629Z,33.90
2018-04-11T12:12:21.176Z,33.30
2018-04-11T12:14:48.809Z,33.80
2018-04-11T12:17:17.105Z,34.30
2018-04-11T12:19:45.416Z,34.10
2018-04-11T12:22:12.948Z,34.20
2018-04-11T12:24:40.506Z,34.50
2018-04-11T12:27:08.028Z,34.10
2018-04-11T12:29:35.665Z,34.00
2018-04-11T12:32:03.243Z,34.20
2018-04-11T12:34:30.776Z,34.40
2018-04-11T12:36:58.962Z,34.50
2018-04-11T12:39:26.481Z,34.00
2018-04-11T12:41:54.037Z,34.30
2018-04-11T12:44:21.565Z,35.20
2018-04-11T12:46:49.124Z,36.40
2018-04-11T12:49:17.426Z,38.40
2018-04-11T12:51:45.109Z,37.70
2018-04-11T12:54:12.667Z,37.20
2018-04-11T12:56:45.288Z,37.10
2018-04-11T12:59:12.865Z,36.90
2018-04-11T13:01:40.391Z,37.00
2018-04-11T13:04:07.945Z,35.50
2018-04-11T13:06:35.465Z,34.80
2018-04-11T13:09:03.972Z,35.90
2018-04-11T13:11:31.532Z,35.30
2018-04-11T13:14:00.006Z,36.40
2018-04-11T13:16:27.558Z,36.10
2018-04-11T13:18:55.105Z,35.90
2018-04-11T13:21:22.971Z,35.30
2018-04-11T13:23:53.342Z,35.80
2018-04-11T13:26:21.812Z,35.80
2018-04-11T13:28:49.368Z,35.30
2018-04-11T13:31:16.912Z,35.70
2018-04-11T13:33:44.753Z,36.10
2018-04-11T13:36:13.179Z,35.30
2018-04-11T13:38:40.737Z,35.30
2018-04-11T13:41:08.261Z,35.70
2018-04-11T13:43:35.813Z,34.90
2018-04-11T13:46:03.374Z,35.20
2018-04-11T13:48:30.897Z,34.60
2018-04-11T13:50:58.453Z,35.60
2018-04-11T13:53:25.989Z,35.50
2018-04-11T13:55:53.540Z,34.50
2018-04-11T13:58:21.059Z,35.00
2018-04-11T14:00:48.595Z,34.50
2018-04-11T14:03:16.938Z,36.20
2018-04-11T14:05:44.467Z,36.20
2018-04-11T14:08:12.017Z,36.10
2018-04-11T14:10:39.553Z,36.90
2018-04-11T14:13:07.875Z,35.50
2018-04-11T14:15:35.398Z,35.00
2018-04-11T14:18:04.656Z,35.70
2018-04-11T14:20:32.201Z,35.70
2018-04-11T14:22:59.730Z,35.80
2018-04-11T14:25:27.356Z,36.40
2018-04-11T14:27:54.825Z,36.80
2018-04-11T14:30:23.134Z,36.70
2018-04-11T14:32:51.608Z,36.60
2018-04-11T14:35:20.098Z,36.90
2018-04-11T14:37:47.646Z,36.00
2018-04-11T14:40:15.168Z,34.60
2018-04-11T14:42:42.718Z,34.90
2018-04-11T14:45:11.004Z,35.30
2018-04-11T14:47:39.320Z,35.30
2018-04-11T14:50:06.839Z,35.30
2018-04-11T14:52:34.357Z,35.40
2018-04-11T14:55:01.933Z,35.40
2018-04-11T14:57:29.479Z,36.40
2018-04-11T14:59:57.033Z,36.40
2018-04-11T15:02:24.545Z,37.10
2018-04-11T15:04:52.084Z,36.60
2018-04-11T15:07:19.636Z,36.20
2018-04-11T15:09:48.085Z,37.00
2018-04-11T15:12:15.690Z,37.00
2018-04-11T15:14:44.173Z,36.90
2018-04-11T15:17:12.512Z,36.20
2018-04-11T15:19:40.058Z,35.70
2018-04-11T15:22:07.579Z,36.30
2018-04-11T15:24:35.904Z,36.40
2018-04-11T15:27:03.469Z,36.40
2018-04-11T15:29:31.016Z,34.70
2018-04-11T15:31:58.537Z,32.70
2018-04-11T15:34:26.859Z,31.00
2018-04-11T15:36:54.430Z,31.00
2018-04-11T15:39:21.953Z,31.40
2018-04-11T15:41:49.517Z,32.80
2018-04-11T15:44:17.035Z,34.20
2018-04-11T15:46:44.595Z,35.70
2018-04-11T15:49:12.121Z,35.20
2018-04-11T15:51:39.641Z,31.90
2018-04-11T15:54:09.145Z,32.50
2018-04-11T15:56:36.676Z,31.00
2018-04-11T15:59:04.976Z,31.90
2018-04-11T16:01:32.544Z,31.90
2018-04-11T16:04:00.089Z,32.40
2018-04-11T16:06:28.397Z,32.90
2018-04-11T16:08:55.910Z,32.90
2018-04-11T16:11:24.229Z,34.00
2018-04-11T16:13:51.761Z,33.60
2018-04-11T16:16:22.029Z,33.70
2018-04-11T16:18:49.558Z,33.60
2018-04-11T16:21:17.110Z,35.40
2018-04-11T16:23:44.753Z,36.10
2018-04-11T16:26:13.039Z,35.60
2018-04-11T16:28:40.586Z,35.60
2018-04-11T16:31:08.887Z,35.70
2018-04-11T16:33:36.437Z,35.70
2018-04-11T16:36:04.739Z,36.10
2018-04-11T16:38:32.371Z,36.10
2018-04-11T16:40:59.878Z,36.70
2018-04-11T16:43:27.403Z,36.60
2018-04-11T16:45:56.907Z,37.40
2018-04-11T16:48:24.429Z,37.20
2018-04-11T16:50:51.978Z,36.20
2018-04-11T16:53:19.492Z,35.80
2018-04-11T16:55:47.047Z,36.50
2018-04-11T16:58:14.562Z,37.10
2018-04-11T17:00:42.786Z,37.60
2018-04-11T17:03:12.253Z,38.10
2018-04-11T17:05:39.770Z,37.80
2018-04-11T17:08:07.308Z,37.60
2018-04-11T17:10:34.838Z,38.00
2018-04-11T17:13:04.404Z,38.40
2018-04-11T17:15:31.934Z,39.10
2018-04-11T17:17:59.448Z,39.50
2018-04-11T17:20:40.609Z,40.90
2018-04-11T17:23:20.790Z,41.40
2018-04-11T17:26:00.092Z,41.40
2018-04-11T17:28:40.459Z,42.10
2018-04-11T17:31:29.641Z,42.70
2018-04-11T17:33:57.951Z,42.60
2018-04-11T17:36:26.484Z,42.70
2018-04-11T17:38:54.004Z,43.00
2018-04-11T17:41:21.578Z,43.40
2018-04-11T17:43:49.115Z,44.30
2018-04-11T17:46:16.641Z,44.80
2018-04-11T17:48:44.186Z,46.30
2018-04-11T17:51:11.708Z,47.50
2018-04-11T17:53:39.257Z,48.00
2018-04-11T17:56:06.781Z,49.30
2018-04-11T17:58:35.096Z,51.30
2018-04-11T18:01:03.605Z,51.30
2018-04-11T18:03:31.330Z,52.10
2018-04-11T18:05:59.245Z,52.80
2018-04-11T18:08:26.772Z,53.20
2018-04-11T18:10:54.372Z,53.80
2018-04-11T18:13:22.662Z,54.50
2018-04-11T18:15:50.224Z,54.30
2018-04-11T18:18:18.507Z,55.90
2018-04-11T18:20:46.043Z,55.90
2018-04-11T18:23:15.547Z,57.00
2018-04-11T18:25:43.104Z,57.00
2018-04-11T18:28:10.687Z,57.50
2018-04-11T18:30:38.981Z,59.30
2018-04-11T18:33:06.533Z,59.30
2018-04-11T18:35:34.076Z,59.40
2018-04-11T18:38:02.358Z,61.30
2018-04-11T18:40:30.687Z,61.70
2018-04-11T18:42:58.798Z,61.70
2018-04-11T18:45:27.084Z,63.00
2018-04-11T18:47:55.184Z,63.00
2018-04-11T18:50:22.713Z,64.70
2018-04-11T18:52:51.026Z,65.30
2018-04-11T18:55:18.578Z,65.20
2018-04-11T18:57:46.130Z,66.20
2018-04-11T19:00:13.665Z,64.00
2018-04-11T19:02:41.961Z,63.50
2018-04-11T19:05:09.541Z,63.50
2018-04-11T19:07:38.020Z,63.60
2018-04-11T19:10:05.628Z,63.60
2018-04-11T19:12:33.149Z,63.90
2018-04-11T19:15:00.681Z,63.60
2018-04-11T19:17:28.228Z,64.10
2018-04-11T19:19:55.748Z,64.80
2018-04-11T19:22:23.343Z,64.50
2018-04-11T19:24:50.879Z,65.00
2018-04-11T19:27:19.238Z,64.10
2018-04-11T19:29:47.549Z,65.50
2018-04-11T19:32:15.085Z,65.50
2018-04-11T19:34:42.678Z,66.10
2018-04-11T19:37:11.921Z,66.60
2018-04-11T19:39:39.452Z,66.40
2018-04-11T19:42:07.049Z,66.90
2018-04-11T19:44:34.589Z,68.40
2018-04-11T19:47:02.149Z,69.10
2018-04-11T19:49:30.676Z,69.10
2018-04-11T19:51:58.987Z,68.40
2018-04-11T19:54:26.561Z,68.30
2018-04-11T19:56:54.097Z,67.30
2018-04-11T19:59:21.688Z,66.40
2018-04-11T20:01:49.216Z,65.90
2018-04-11T20:04:16.747Z,65.80
2018-04-11T20:06:45.074Z,65.80
2018-04-11T20:09:12.603Z,65.70
2018-04-11T20:11:40.124Z,64.50
2018-04-11T20:14:07.685Z,64.20
2018-04-11T20:16:35.221Z,62.60
2018-04-11T20:19:03.731Z,62.60
2018-04-11T20:21:32.042Z,60.90
2018-04-11T20:23:59.590Z,60.90
2018-04-11T20:26:27.134Z,60.00
2018-04-11T20:28:54.669Z,59.90
2018-04-11T20:31:22.225Z,59.80
2018-04-11T20:33:49.755Z,59.70
2018-04-11T20:36:17.297Z,59.90
2018-04-11T20:38:44.848Z,59.60
2018-04-11T20:41:12.373Z,59.90
2018-04-11T20:43:40.684Z,59.80
2018-04-11T20:46:08.221Z,59.80
2018-04-11T20:48:36.535Z,60.50
2018-04-11T20:51:04.055Z,60.40
2018-04-11T20:53:32.549Z,61.10
2018-04-11T20:56:00.080Z,61.10
2018-04-11T20:58:27.605Z,61.50
2018-04-11T21:00:55.145Z,61.50
2018-04-11T21:03:22.779Z,61.30
2018-04-11T21:05:51.137Z,61.50
2018-04-11T21:08:18.665Z,61.40
2018-04-11T21:10:46.189Z,61.90
2018-04-11T21:13:13.740Z,61.80
2018-04-11T21:15:42.212Z,62.50
2018-04-11T21:18:10.517Z,62.80
2018-04-11T21:20:38.051Z,62.80
2018-04-11T21:23:06.369Z,62.90
2018-04-11T21:25:33.897Z,62.90
2018-04-11T21:28:01.447Z,62.50
2018-04-11T21:30:29.016Z,63.50
2018-04-11T21:32:57.497Z,63.80
2018-04-11T21:35:25.057Z,63.10
2018-04-11T21:37:52.585Z,63.50
2018-04-11T21:40:20.176Z,65.60
2018-04-11T21:42:47.701Z,67.80
2018-04-11T21:45:15.229Z,69.00
2018-04-11T21:47:42.789Z,69.30
2018-04-11T21:50:10.313Z,69.90
2018-04-11T21:52:37.867Z,70.60
2018-04-11T21:55:05.881Z,71.20
2018-04-11T21:57:33.400Z,72.00
2018-04-11T22:00:00.981Z,72.30
2018-04-11T22:02:28.510Z,70.90
2018-04-11T22:04:56.061Z,71.10
2018-04-11T22:07:24.387Z,72.30
2018-04-11T22:09:51.892Z,72.30
2018-04-11T22:12:19.448Z,72.40
2018-04-11T22:14:47.742Z,71.10
2018-04-11T22:17:15.298Z,71.10
2018-04-11T22:19:42.829Z,71.90
2018-04-11T22:22:10.353Z,70.40
2018-04-11T22:24:38.845Z,67.50
2018-04-11T22:27:06.361Z,66.80
2018-04-11T22:29:33.921Z,66.00
2018-04-11T22:32:01.447Z,66.70
2018-04-11T22:34:29.560Z,66.90
2018-04-11T22:36:57.110Z,67.70
2018-04-11T22:39:25.593Z,66.00
2018-04-11T22:41:53.164Z,65.50
2018-04-11T22:44:20.692Z,65.70
2018-04-11T22:46:48.217Z,65.50
2018-04-11T22:49:15.796Z,65.00
2018-04-11T22:51:43.329Z,65.00
2018-04-11T22:54:10.888Z,64.90
2018-04-11T22:56:38.541Z,64.60
2018-04-11T22:59:06.065Z,64.50
2018-04-11T23:01:34.591Z,64.60
2018-04-11T23:04:02.141Z,64.90
2018-04-11T23:06:29.660Z,65.40
2018-04-11T23:08:57.184Z,65.00
2018-04-11T23:11:24.745Z,64.80
2018-04-11T23:13:52.269Z,64.10
2018-04-11T23:16:19.821Z,64.20
2018-04-11T23:18:47.361Z,63.30
2018-04-11T23:21:15.842Z,63.60
2018-04-11T23:23:43.392Z,63.20
2018-04-11T23:26:10.929Z,63.40
2018-04-11T23:28:39.249Z,63.80
2018-04-11T23:31:06.772Z,63.80
2018-04-11T23:33:34.307Z,63.40
2018-04-11T23:36:02.893Z,63.80
2018-04-11T23:38:31.221Z,64.80
2018-04-11T23:40:58.777Z,64.80
2018-04-11T23:43:26.297Z,63.90
2018-04-11T23:45:56.568Z,64.40
2018-04-11T23:48:24.099Z,64.40
2018-04-11T23:50:51.652Z,64.60
2018-04-11T23:53:19.181Z,65.00
2018-04-11T23:55:47.497Z,64.30
2018-04-11T23:58:15.016Z,64.30
